VOZ2242 NZWN-YSSY
Flight info
| Callsign | VOZ2242 |
|---|---|
| Flight time | 2h 50m |
| Altitude | 38000 |
| Route | UPLUD2PTANEN/34 TANEN M636 PLUGA DCT RIKNI DCT MARLN |
| Aircraft | B736/M-SDE2E3FGHIRWXY/LB1 |
Departure
| Time | 2026-04-25 07:34 |
|---|---|
| Airport | Wellington International Airport (NZWN) |
Arrival
| Time | 2026-04-25 10:24 |
|---|---|
| Airport | Sydney Kingsford Smith International Airport (YSSY) |
| Time | Latitude | Longitude | Altitude | Speed | Heading |
|---|---|---|---|---|---|
| 2026-04-25 07:21 | -41.32746 | 174.81022 | 29 ft | 0 kts | 183° |
| 2026-04-25 07:25 | -41.32744 | 174.81022 | 29 ft | 3 kts | 183° |
| 2026-04-25 07:25 | -41.32722 | 174.81026 | 28 ft | 3 kts | 200° |
| 2026-04-25 07:25 | -41.32705 | 174.81040 | 28 ft | 3 kts | 246° |
| 2026-04-25 07:26 | -41.32703 | 174.81057 | 28 ft | 1 kts | 273° |
| 2026-04-25 07:26 | -41.32703 | 174.81060 | 28 ft | 0 kts | 273° |
| 2026-04-25 07:29 | -41.32701 | 174.81022 | 29 ft | 7 kts | 274° |
| 2026-04-25 07:29 | -41.32699 | 174.80960 | 31 ft | 6 kts | 271° |
| 2026-04-25 07:29 | -41.32707 | 174.80902 | 33 ft | 6 kts | 246° |
| 2026-04-25 07:29 | -41.32720 | 174.80845 | 34 ft | 8 kts | 250° |
| 2026-04-25 07:30 | -41.32784 | 174.80812 | 36 ft | 14 kts | 184° |
| 2026-04-25 07:30 | -41.32905 | 174.80801 | 36 ft | 19 kts | 181° |
| 2026-04-25 07:30 | -41.33033 | 174.80796 | 36 ft | 18 kts | 180° |
| 2026-04-25 07:30 | -41.33156 | 174.80787 | 35 ft | 17 kts | 183° |
| 2026-04-25 07:31 | -41.33275 | 174.80778 | 36 ft | 17 kts | 182° |
| 2026-04-25 07:31 | -41.33390 | 174.80773 | 36 ft | 16 kts | 180° |
| 2026-04-25 07:31 | -41.33476 | 174.80766 | 32 ft | 0 kts | 191° |
| 2026-04-25 07:33 | -41.33519 | 174.80703 | 32 ft | 18 kts | 245° |
| 2026-04-25 07:33 | -41.33443 | 174.80635 | 33 ft | 26 kts | 6° |
| 2026-04-25 07:33 | -41.32959 | 174.80671 | 39 ft | 111 kts | 2° |
| 2026-04-25 07:34 | -41.31993 | 174.80729 | 356 ft | 152 kts | 3° |
| 2026-04-25 07:34 | -41.30924 | 174.80803 | 1337 ft | 151 kts | 2° |
| 2026-04-25 07:34 | -41.29892 | 174.80874 | 2314 ft | 153 kts | 1° |
| 2026-04-25 07:34 | -41.28683 | 174.80947 | 2638 ft | 201 kts | 0° |
| 2026-04-25 07:35 | -41.27152 | 174.81014 | 2975 ft | 239 kts | 354° |
| 2026-04-25 07:35 | -41.25524 | 174.80228 | 3595 ft | 258 kts | 328° |
| 2026-04-25 07:35 | -41.23815 | 174.79397 | 4465 ft | 274 kts | 348° |
| 2026-04-25 07:35 | -41.21922 | 174.78931 | 5546 ft | 279 kts | 347° |
| 2026-04-25 07:36 | -41.20011 | 174.78356 | 6577 ft | 285 kts | 345° |
| 2026-04-25 07:36 | -41.18065 | 174.77712 | 7566 ft | 290 kts | 344° |
| 2026-04-25 07:36 | -41.16101 | 174.77040 | 8593 ft | 293 kts | 344° |
| 2026-04-25 07:36 | -41.14151 | 174.76187 | 9508 ft | 298 kts | 330° |
| 2026-04-25 07:37 | -41.12574 | 174.74434 | 9933 ft | 297 kts | 309° |
| 2026-04-25 07:37 | -41.11218 | 174.72329 | 9996 ft | 301 kts | 303° |
| 2026-04-25 07:37 | -41.10440 | 174.69797 | 10508 ft | 299 kts | 278° |
| 2026-04-25 07:37 | -41.10081 | 174.66958 | 10920 ft | 323 kts | 277° |
| 2026-04-25 07:38 | -41.09735 | 174.63968 | 11678 ft | 331 kts | 276° |
| 2026-04-25 07:38 | -41.09389 | 174.60980 | 12611 ft | 333 kts | 277° |
| 2026-04-25 07:38 | -41.09028 | 174.57928 | 13566 ft | 336 kts | 277° |
| 2026-04-25 07:38 | -41.08657 | 174.54850 | 14432 ft | 340 kts | 277° |
| 2026-04-25 07:39 | -41.08274 | 174.51740 | 15210 ft | 344 kts | 278° |
| 2026-04-25 07:39 | -41.07882 | 174.48591 | 15990 ft | 348 kts | 278° |
| 2026-04-25 07:39 | -41.07481 | 174.45409 | 16773 ft | 353 kts | 278° |
| 2026-04-25 07:39 | -41.07071 | 174.42180 | 17542 ft | 358 kts | 278° |
| 2026-04-25 07:40 | -41.06652 | 174.38901 | 18324 ft | 362 kts | 278° |
| 2026-04-25 07:40 | -41.06228 | 174.35589 | 19046 ft | 366 kts | 278° |
| 2026-04-25 07:40 | -41.05797 | 174.32244 | 19743 ft | 370 kts | 278° |
| 2026-04-25 07:40 | -41.05362 | 174.28874 | 20447 ft | 373 kts | 278° |
| 2026-04-25 07:41 | -41.04920 | 174.25461 | 21133 ft | 377 kts | 278° |
| 2026-04-25 07:41 | -41.04474 | 174.22024 | 21826 ft | 381 kts | 278° |
| 2026-04-25 07:41 | -41.04028 | 174.18591 | 22519 ft | 384 kts | 278° |
| 2026-04-25 07:41 | -41.03571 | 174.15083 | 23208 ft | 388 kts | 278° |
| 2026-04-25 07:42 | -41.03106 | 174.11529 | 23879 ft | 392 kts | 278° |
| 2026-04-25 07:42 | -41.02637 | 174.07948 | 24440 ft | 396 kts | 278° |
| 2026-04-25 07:42 | -41.02164 | 174.04343 | 25011 ft | 399 kts | 278° |
| 2026-04-25 07:42 | -41.01684 | 174.00700 | 25583 ft | 403 kts | 278° |
| 2026-04-25 07:43 | -41.01200 | 173.97028 | 26147 ft | 406 kts | 278° |
| 2026-04-25 07:43 | -41.00710 | 173.93327 | 26690 ft | 409 kts | 278° |
| 2026-04-25 07:43 | -41.00215 | 173.89596 | 27231 ft | 413 kts | 278° |
| 2026-04-25 07:43 | -40.99714 | 173.85829 | 27763 ft | 416 kts | 278° |
| 2026-04-25 07:44 | -40.99216 | 173.82090 | 28268 ft | 420 kts | 278° |
| 2026-04-25 07:44 | -40.98704 | 173.78265 | 28772 ft | 423 kts | 278° |
| 2026-04-25 07:44 | -40.98189 | 173.74422 | 29263 ft | 426 kts | 277° |
| 2026-04-25 07:44 | -40.97667 | 173.70539 | 29748 ft | 430 kts | 277° |
| 2026-04-25 07:45 | -40.97140 | 173.66624 | 30222 ft | 433 kts | 277° |
| 2026-04-25 07:45 | -40.96606 | 173.62677 | 30627 ft | 436 kts | 277° |
| 2026-04-25 07:45 | -40.96069 | 173.58711 | 31012 ft | 439 kts | 277° |
| 2026-04-25 07:45 | -40.95534 | 173.54776 | 31395 ft | 441 kts | 277° |
| 2026-04-25 07:46 | -40.94987 | 173.50764 | 31789 ft | 443 kts | 277° |
| 2026-04-25 07:46 | -40.94440 | 173.46762 | 32295 ft | 441 kts | 277° |
| 2026-04-25 07:46 | -40.93893 | 173.42775 | 32844 ft | 439 kts | 277° |
| 2026-04-25 07:46 | -40.93347 | 173.38805 | 33346 ft | 438 kts | 277° |
| 2026-04-25 07:47 | -40.92800 | 173.34835 | 33763 ft | 438 kts | 277° |
| 2026-04-25 07:47 | -40.92252 | 173.30869 | 34192 ft | 438 kts | 277° |
| 2026-04-25 07:47 | -40.91712 | 173.26964 | 34595 ft | 436 kts | 277° |
| 2026-04-25 07:47 | -40.91164 | 173.23022 | 34988 ft | 435 kts | 277° |
| 2026-04-25 07:48 | -40.90618 | 173.19101 | 35356 ft | 434 kts | 277° |
| 2026-04-25 07:48 | -40.90070 | 173.15171 | 35682 ft | 434 kts | 277° |
| 2026-04-25 07:48 | -40.89520 | 173.11239 | 36027 ft | 433 kts | 278° |
| 2026-04-25 07:48 | -40.88972 | 173.07326 | 36384 ft | 432 kts | 278° |
| 2026-04-25 07:49 | -40.88423 | 173.03425 | 36736 ft | 431 kts | 278° |
| 2026-04-25 07:49 | -40.87875 | 172.99534 | 37053 ft | 431 kts | 278° |
| 2026-04-25 07:49 | -40.87323 | 172.95631 | 37351 ft | 431 kts | 278° |
| 2026-04-25 07:49 | -40.86773 | 172.91747 | 37674 ft | 430 kts | 278° |
| 2026-04-25 07:50 | -40.86222 | 172.87868 | 38020 ft | 428 kts | 278° |
| 2026-04-25 07:50 | -40.85678 | 172.84047 | 38265 ft | 429 kts | 278° |
| 2026-04-25 07:50 | -40.84561 | 172.76224 | 38281 ft | 435 kts | 278° |
| 2026-04-25 07:51 | -40.83437 | 172.68408 | 38266 ft | 429 kts | 278° |
| 2026-04-25 07:51 | -40.82323 | 172.60699 | 38280 ft | 427 kts | 278° |
| 2026-04-25 07:52 | -40.81207 | 172.53005 | 38275 ft | 426 kts | 278° |
| 2026-04-25 07:52 | -40.80275 | 172.46608 | 38284 ft | 426 kts | 278° |
| 2026-04-25 07:53 | -40.79148 | 172.38906 | 38276 ft | 427 kts | 278° |
| 2026-04-25 07:53 | -40.78016 | 172.31209 | 38268 ft | 427 kts | 278° |
| 2026-04-25 07:54 | -40.76878 | 172.23516 | 38268 ft | 427 kts | 278° |
| 2026-04-25 07:54 | -40.75741 | 172.15861 | 38276 ft | 427 kts | 278° |
| 2026-04-25 07:55 | -40.74594 | 172.08170 | 38258 ft | 428 kts | 278° |
| 2026-04-25 07:55 | -40.73436 | 172.00454 | 38263 ft | 428 kts | 278° |
| 2026-04-25 07:56 | -40.72273 | 171.92734 | 38275 ft | 429 kts | 278° |
| 2026-04-25 07:56 | -40.71111 | 171.85056 | 38277 ft | 429 kts | 278° |
| 2026-04-25 07:57 | -40.69935 | 171.77330 | 38278 ft | 429 kts | 278° |
| 2026-04-25 07:57 | -40.68754 | 171.69601 | 38282 ft | 429 kts | 278° |
| 2026-04-25 07:58 | -40.67570 | 171.61889 | 38281 ft | 429 kts | 278° |
| 2026-04-25 07:58 | -40.66378 | 171.54164 | 38282 ft | 429 kts | 279° |
| 2026-04-25 07:59 | -40.65189 | 171.46499 | 38285 ft | 429 kts | 279° |
| 2026-04-25 07:59 | -40.63991 | 171.38799 | 38289 ft | 429 kts | 279° |
| 2026-04-25 08:00 | -40.62784 | 171.31090 | 38291 ft | 429 kts | 279° |
| 2026-04-25 08:00 | -40.61581 | 171.23435 | 38294 ft | 429 kts | 279° |
| 2026-04-25 08:01 | -40.60365 | 171.15734 | 38288 ft | 428 kts | 279° |
| 2026-04-25 08:01 | -40.59153 | 171.08082 | 38291 ft | 428 kts | 279° |
| 2026-04-25 08:02 | -40.57930 | 171.00410 | 38297 ft | 428 kts | 279° |
| 2026-04-25 08:02 | -40.56699 | 170.92718 | 38292 ft | 428 kts | 279° |
| 2026-04-25 08:03 | -40.55474 | 170.85098 | 38304 ft | 428 kts | 279° |
| 2026-04-25 08:03 | -40.54237 | 170.77428 | 38311 ft | 428 kts | 279° |
| 2026-04-25 08:04 | -40.52993 | 170.69758 | 38308 ft | 428 kts | 279° |
| 2026-04-25 08:04 | -40.51747 | 170.62098 | 38309 ft | 429 kts | 279° |
| 2026-04-25 08:05 | -40.50476 | 170.54479 | 38306 ft | 429 kts | 281° |
| 2026-04-25 08:05 | -40.48894 | 170.46898 | 38316 ft | 430 kts | 284° |
| 2026-04-25 08:06 | -40.47201 | 170.39358 | 38312 ft | 430 kts | 284° |
| 2026-04-25 08:06 | -40.45519 | 170.31803 | 38318 ft | 430 kts | 284° |
| 2026-04-25 08:07 | -40.43863 | 170.24293 | 38319 ft | 430 kts | 284° |
| 2026-04-25 08:07 | -40.42199 | 170.16731 | 38325 ft | 430 kts | 284° |
| 2026-04-25 08:08 | -40.40540 | 170.09184 | 38320 ft | 430 kts | 283° |
| 2026-04-25 08:08 | -40.38890 | 170.01704 | 38330 ft | 429 kts | 283° |
| 2026-04-25 08:09 | -40.37220 | 169.94177 | 38337 ft | 431 kts | 284° |
| 2026-04-25 08:09 | -40.35531 | 169.86606 | 38327 ft | 433 kts | 284° |
| 2026-04-25 08:10 | -40.33839 | 169.79023 | 38337 ft | 433 kts | 284° |
| 2026-04-25 08:10 | -40.32143 | 169.71431 | 38334 ft | 434 kts | 284° |
| 2026-04-25 08:11 | -40.30438 | 169.63842 | 38334 ft | 434 kts | 284° |
| 2026-04-25 08:11 | -40.28737 | 169.56306 | 38338 ft | 433 kts | 284° |
| 2026-04-25 08:12 | -40.27023 | 169.48733 | 38335 ft | 432 kts | 284° |
| 2026-04-25 08:12 | -40.25320 | 169.41243 | 38345 ft | 431 kts | 284° |
| 2026-04-25 08:13 | -40.23607 | 169.33724 | 38347 ft | 430 kts | 284° |
| 2026-04-25 08:14 | -40.21036 | 169.22494 | 38347 ft | 429 kts | 284° |
| 2026-04-25 08:14 | -40.19320 | 169.15022 | 38345 ft | 428 kts | 284° |
| 2026-04-25 08:15 | -40.17599 | 169.07560 | 38351 ft | 428 kts | 284° |
| 2026-04-25 08:15 | -40.15874 | 169.00107 | 38356 ft | 428 kts | 284° |
| 2026-04-25 08:16 | -40.14155 | 168.92695 | 38358 ft | 428 kts | 284° |
| 2026-04-25 08:16 | -40.12423 | 168.85245 | 38359 ft | 428 kts | 284° |
| 2026-04-25 08:17 | -40.10683 | 168.77797 | 38360 ft | 428 kts | 285° |
| 2026-04-25 08:17 | -40.08937 | 168.70348 | 38364 ft | 430 kts | 284° |
| 2026-04-25 08:18 | -40.07156 | 168.62763 | 38371 ft | 442 kts | 285° |
| 2026-04-25 08:18 | -40.05324 | 168.54985 | 38373 ft | 453 kts | 285° |
| 2026-04-25 08:19 | -40.03446 | 168.47053 | 38375 ft | 461 kts | 285° |
| 2026-04-25 08:19 | -40.01554 | 168.39091 | 38358 ft | 463 kts | 285° |
| 2026-04-25 08:20 | -39.99639 | 168.31064 | 38365 ft | 463 kts | 285° |
| 2026-04-25 08:20 | -39.97722 | 168.23044 | 38371 ft | 463 kts | 285° |
| 2026-04-25 08:21 | -39.95813 | 168.15082 | 38372 ft | 462 kts | 285° |
| 2026-04-25 08:21 | -39.93887 | 168.07088 | 38375 ft | 462 kts | 285° |
| 2026-04-25 08:22 | -39.91958 | 167.99108 | 38377 ft | 461 kts | 285° |
| 2026-04-25 08:22 | -39.90026 | 167.91135 | 38376 ft | 461 kts | 286° |
| 2026-04-25 08:23 | -39.88091 | 167.83177 | 38375 ft | 461 kts | 286° |
| 2026-04-25 08:23 | -39.86159 | 167.75260 | 38378 ft | 461 kts | 286° |
| 2026-04-25 08:24 | -39.84215 | 167.67323 | 38379 ft | 461 kts | 286° |
| 2026-04-25 08:24 | -39.82260 | 167.59367 | 38382 ft | 460 kts | 286° |
| 2026-04-25 08:25 | -39.80304 | 167.51431 | 38381 ft | 460 kts | 286° |
| 2026-04-25 08:25 | -39.78341 | 167.43495 | 38385 ft | 460 kts | 286° |
| 2026-04-25 08:26 | -39.76387 | 167.35621 | 38390 ft | 460 kts | 286° |
| 2026-04-25 08:26 | -39.74414 | 167.27697 | 38392 ft | 460 kts | 286° |
| 2026-04-25 08:27 | -39.72432 | 167.19764 | 38388 ft | 460 kts | 286° |
| 2026-04-25 08:27 | -39.70458 | 167.11885 | 38390 ft | 461 kts | 286° |
| 2026-04-25 08:28 | -39.68474 | 167.03989 | 38389 ft | 461 kts | 287° |
| 2026-04-25 08:28 | -39.66476 | 166.96069 | 38395 ft | 461 kts | 287° |
| 2026-04-25 08:29 | -39.64482 | 166.88192 | 38395 ft | 461 kts | 287° |
| 2026-04-25 08:29 | -39.62469 | 166.80265 | 38395 ft | 461 kts | 287° |
| 2026-04-25 08:30 | -39.60465 | 166.72401 | 38395 ft | 461 kts | 287° |
| 2026-04-25 08:30 | -39.58442 | 166.64485 | 38398 ft | 461 kts | 287° |
| 2026-04-25 08:31 | -39.56417 | 166.56584 | 38401 ft | 462 kts | 287° |
| 2026-04-25 08:31 | -39.54400 | 166.48741 | 38399 ft | 462 kts | 287° |
| 2026-04-25 08:32 | -39.52361 | 166.40839 | 38406 ft | 462 kts | 287° |
| 2026-04-25 08:32 | -39.50321 | 166.32962 | 38401 ft | 462 kts | 287° |
| 2026-04-25 08:33 | -39.48269 | 166.25059 | 38395 ft | 462 kts | 287° |
| 2026-04-25 08:33 | -39.46230 | 166.17232 | 38406 ft | 462 kts | 287° |
| 2026-04-25 08:34 | -39.44166 | 166.09333 | 38408 ft | 463 kts | 287° |
| 2026-04-25 08:34 | -39.42095 | 166.01435 | 38410 ft | 463 kts | 287° |
| 2026-04-25 08:35 | -39.40020 | 165.93542 | 38410 ft | 463 kts | 287° |
| 2026-04-25 08:35 | -39.37933 | 165.85637 | 38406 ft | 463 kts | 288° |
| 2026-04-25 08:36 | -39.35855 | 165.77782 | 38408 ft | 464 kts | 288° |
| 2026-04-25 08:36 | -39.33759 | 165.69900 | 38414 ft | 464 kts | 288° |
| 2026-04-25 08:37 | -39.31659 | 165.62012 | 38410 ft | 464 kts | 288° |
| 2026-04-25 08:37 | -39.29906 | 165.55445 | 38412 ft | 465 kts | 288° |
| 2026-04-25 08:38 | -39.27445 | 165.46252 | 38410 ft | 465 kts | 288° |
| 2026-04-25 08:38 | -39.25681 | 165.39691 | 38417 ft | 465 kts | 288° |
| 2026-04-25 08:39 | -39.23556 | 165.31805 | 38415 ft | 465 kts | 288° |
| 2026-04-25 08:39 | -39.21422 | 165.23911 | 38421 ft | 466 kts | 288° |
| 2026-04-25 08:40 | -39.19280 | 165.16017 | 38416 ft | 466 kts | 288° |
| 2026-04-25 08:40 | -39.17132 | 165.08121 | 38418 ft | 466 kts | 288° |
| 2026-04-25 08:41 | -39.14991 | 165.00278 | 38423 ft | 466 kts | 288° |
| 2026-04-25 08:41 | -39.12831 | 164.92389 | 38422 ft | 467 kts | 288° |
| 2026-04-25 08:42 | -39.10663 | 164.84494 | 38421 ft | 467 kts | 288° |
| 2026-04-25 08:42 | -39.08488 | 164.76596 | 38423 ft | 467 kts | 288° |
| 2026-04-25 08:43 | -39.06328 | 164.68775 | 38426 ft | 467 kts | 289° |
| 2026-04-25 08:43 | -39.04150 | 164.60917 | 38430 ft | 467 kts | 289° |
| 2026-04-25 08:44 | -39.01959 | 164.53034 | 38428 ft | 467 kts | 289° |
| 2026-04-25 08:44 | -38.99770 | 164.45179 | 38427 ft | 467 kts | 289° |
| 2026-04-25 08:45 | -38.97575 | 164.37330 | 38431 ft | 467 kts | 289° |
| 2026-04-25 08:45 | -38.95374 | 164.29483 | 38430 ft | 467 kts | 289° |
| 2026-04-25 08:46 | -38.93166 | 164.21636 | 38433 ft | 467 kts | 289° |
| 2026-04-25 08:46 | -38.90969 | 164.13850 | 38432 ft | 467 kts | 289° |
| 2026-04-25 08:47 | -38.88754 | 164.06020 | 38435 ft | 467 kts | 289° |
| 2026-04-25 08:47 | -38.86530 | 163.98187 | 38437 ft | 467 kts | 289° |
| 2026-04-25 08:48 | -38.84298 | 163.90348 | 38439 ft | 467 kts | 289° |
| 2026-04-25 08:48 | -38.82064 | 163.82521 | 38439 ft | 467 kts | 289° |
| 2026-04-25 08:49 | -38.79822 | 163.74694 | 38441 ft | 467 kts | 289° |
| 2026-04-25 08:49 | -38.77587 | 163.66913 | 38442 ft | 468 kts | 289° |
| 2026-04-25 08:50 | -38.75334 | 163.59092 | 38443 ft | 468 kts | 289° |
| 2026-04-25 08:50 | -38.73075 | 163.51271 | 38438 ft | 468 kts | 289° |
| 2026-04-25 08:51 | -38.70805 | 163.43440 | 38448 ft | 469 kts | 289° |
| 2026-04-25 08:51 | -38.68530 | 163.35612 | 38447 ft | 469 kts | 289° |
| 2026-04-25 08:52 | -38.66247 | 163.27777 | 38449 ft | 469 kts | 289° |
| 2026-04-25 08:52 | -38.63979 | 163.20018 | 38450 ft | 469 kts | 289° |
| 2026-04-25 08:53 | -38.61686 | 163.12195 | 38449 ft | 469 kts | 289° |
| 2026-04-25 08:53 | -38.59392 | 163.04386 | 38454 ft | 469 kts | 289° |
| 2026-04-25 08:54 | -38.57070 | 162.96577 | 38452 ft | 470 kts | 290° |
| 2026-04-25 08:54 | -38.54654 | 162.88803 | 38455 ft | 470 kts | 291° |
| 2026-04-25 08:55 | -38.52232 | 162.81097 | 38456 ft | 470 kts | 291° |
| 2026-04-25 08:55 | -38.49800 | 162.73342 | 38457 ft | 470 kts | 291° |
| 2026-04-25 08:56 | -38.47369 | 162.65585 | 38453 ft | 471 kts | 291° |
| 2026-04-25 08:56 | -38.44932 | 162.57823 | 38453 ft | 471 kts | 291° |
| 2026-04-25 08:57 | -38.42490 | 162.50064 | 38456 ft | 471 kts | 291° |
| 2026-04-25 08:57 | -38.40043 | 162.42315 | 38452 ft | 471 kts | 291° |
| 2026-04-25 08:58 | -38.37585 | 162.34549 | 38456 ft | 472 kts | 291° |
| 2026-04-25 08:58 | -38.35124 | 162.26799 | 38455 ft | 472 kts | 291° |
| 2026-04-25 08:59 | -38.32656 | 162.19045 | 38457 ft | 472 kts | 291° |
| 2026-04-25 08:59 | -38.30200 | 162.11352 | 38462 ft | 473 kts | 291° |
| 2026-04-25 09:00 | -38.27717 | 162.03596 | 38462 ft | 473 kts | 291° |
| 2026-04-25 09:00 | -38.25224 | 161.95828 | 38462 ft | 473 kts | 291° |
| 2026-04-25 09:01 | -38.22725 | 161.88062 | 38470 ft | 473 kts | 291° |
| 2026-04-25 09:01 | -38.20223 | 161.80313 | 38460 ft | 474 kts | 291° |
| 2026-04-25 09:02 | -38.17733 | 161.72618 | 38460 ft | 474 kts | 291° |
| 2026-04-25 09:02 | -38.15219 | 161.64868 | 38464 ft | 474 kts | 291° |
| 2026-04-25 09:03 | -38.12698 | 161.57121 | 38472 ft | 474 kts | 291° |
| 2026-04-25 09:03 | -38.10172 | 161.49380 | 38467 ft | 475 kts | 291° |
| 2026-04-25 09:04 | -38.07639 | 161.41636 | 38457 ft | 475 kts | 291° |
| 2026-04-25 09:04 | -38.05102 | 161.33900 | 38466 ft | 475 kts | 292° |
| 2026-04-25 09:05 | -38.02557 | 161.26164 | 38469 ft | 475 kts | 292° |
| 2026-04-25 09:05 | -38.00021 | 161.18474 | 38455 ft | 475 kts | 292° |
| 2026-04-25 09:06 | -37.97463 | 161.10738 | 38460 ft | 475 kts | 292° |
| 2026-04-25 09:06 | -37.94902 | 161.03014 | 38468 ft | 475 kts | 292° |
| 2026-04-25 09:07 | -37.92338 | 160.95301 | 38466 ft | 475 kts | 292° |
| 2026-04-25 09:07 | -37.89767 | 160.87587 | 38460 ft | 476 kts | 292° |
| 2026-04-25 09:08 | -37.87186 | 160.79865 | 38458 ft | 476 kts | 292° |
| 2026-04-25 09:08 | -37.84601 | 160.72151 | 38464 ft | 476 kts | 292° |
| 2026-04-25 09:09 | -37.82028 | 160.64491 | 38470 ft | 476 kts | 292° |
| 2026-04-25 09:09 | -37.79431 | 160.56783 | 38472 ft | 476 kts | 292° |
| 2026-04-25 09:10 | -37.76826 | 160.49070 | 38466 ft | 476 kts | 292° |
| 2026-04-25 09:10 | -37.74222 | 160.41380 | 38470 ft | 477 kts | 292° |
| 2026-04-25 09:11 | -37.70294 | 160.29818 | 38464 ft | 478 kts | 292° |
| 2026-04-25 09:11 | -37.67658 | 160.22086 | 38465 ft | 479 kts | 292° |
| 2026-04-25 09:12 | -37.65019 | 160.14365 | 38458 ft | 479 kts | 292° |
| 2026-04-25 09:12 | -37.62391 | 160.06695 | 38469 ft | 479 kts | 292° |
| 2026-04-25 09:13 | -37.59741 | 159.98981 | 38472 ft | 479 kts | 292° |
| 2026-04-25 09:13 | -37.57089 | 159.91282 | 38468 ft | 478 kts | 292° |
| 2026-04-25 09:14 | -37.54433 | 159.83591 | 38472 ft | 478 kts | 292° |
| 2026-04-25 09:14 | -37.51771 | 159.75901 | 38467 ft | 478 kts | 292° |
| 2026-04-25 09:15 | -37.49104 | 159.68219 | 38463 ft | 479 kts | 292° |
| 2026-04-25 09:15 | -37.46447 | 159.60586 | 38477 ft | 479 kts | 292° |
| 2026-04-25 09:16 | -37.43770 | 159.52911 | 38468 ft | 479 kts | 292° |
| 2026-04-25 09:16 | -37.41085 | 159.45236 | 38462 ft | 479 kts | 293° |
| 2026-04-25 09:17 | -37.37051 | 159.33741 | 38469 ft | 479 kts | 293° |
| 2026-04-25 09:18 | -37.34353 | 159.26078 | 38466 ft | 479 kts | 293° |
| 2026-04-25 09:18 | -37.31646 | 159.18408 | 38472 ft | 479 kts | 293° |
| 2026-04-25 09:19 | -37.28956 | 159.10806 | 38471 ft | 479 kts | 293° |
| 2026-04-25 09:19 | -37.26241 | 159.03151 | 38467 ft | 480 kts | 293° |
| 2026-04-25 09:20 | -37.23518 | 158.95496 | 38467 ft | 480 kts | 293° |
| 2026-04-25 09:20 | -37.20793 | 158.87852 | 38465 ft | 480 kts | 293° |
| 2026-04-25 09:21 | -37.18060 | 158.80206 | 38466 ft | 480 kts | 293° |
| 2026-04-25 09:21 | -37.15320 | 158.72558 | 38469 ft | 480 kts | 293° |
| 2026-04-25 09:22 | -37.12579 | 158.64927 | 38467 ft | 480 kts | 293° |
| 2026-04-25 09:22 | -37.09843 | 158.57326 | 38466 ft | 481 kts | 293° |
| 2026-04-25 09:23 | -37.07090 | 158.49699 | 38465 ft | 481 kts | 293° |
| 2026-04-25 09:23 | -37.04328 | 158.42073 | 38464 ft | 481 kts | 293° |
| 2026-04-25 09:24 | -37.01560 | 158.34452 | 38459 ft | 481 kts | 293° |
| 2026-04-25 09:24 | -36.98782 | 158.26820 | 38459 ft | 481 kts | 293° |
| 2026-04-25 09:25 | -36.96473 | 158.20485 | 38461 ft | 481 kts | 293° |
| 2026-04-25 09:25 | -36.93688 | 158.12865 | 38458 ft | 482 kts | 293° |
| 2026-04-25 09:26 | -36.90899 | 158.05253 | 38455 ft | 482 kts | 294° |
| 2026-04-25 09:26 | -36.87647 | 157.96399 | 38450 ft | 482 kts | 293° |
| 2026-04-25 09:27 | -36.85302 | 157.90030 | 38454 ft | 482 kts | 294° |
| 2026-04-25 09:27 | -36.82509 | 157.82462 | 38453 ft | 482 kts | 294° |
| 2026-04-25 09:28 | -36.79694 | 157.74854 | 38456 ft | 482 kts | 294° |
| 2026-04-25 09:28 | -36.76870 | 157.67238 | 38450 ft | 482 kts | 294° |
| 2026-04-25 09:29 | -36.74065 | 157.59695 | 38459 ft | 482 kts | 294° |
| 2026-04-25 09:29 | -36.71234 | 157.52098 | 38461 ft | 482 kts | 294° |
| 2026-04-25 09:30 | -36.68397 | 157.44504 | 38456 ft | 482 kts | 294° |
| 2026-04-25 09:30 | -36.65575 | 157.36969 | 38454 ft | 482 kts | 294° |
| 2026-04-25 09:31 | -36.62729 | 157.29389 | 38455 ft | 482 kts | 294° |
| 2026-04-25 09:31 | -36.59876 | 157.21809 | 38453 ft | 482 kts | 294° |
| 2026-04-25 09:32 | -36.57030 | 157.14264 | 38450 ft | 483 kts | 294° |
| 2026-04-25 09:32 | -36.54185 | 157.06741 | 38449 ft | 483 kts | 294° |
| 2026-04-25 09:33 | -36.51322 | 156.99187 | 38448 ft | 483 kts | 294° |
| 2026-04-25 09:33 | -36.48440 | 156.91603 | 38449 ft | 483 kts | 294° |
| 2026-04-25 09:34 | -36.45575 | 156.84081 | 38448 ft | 483 kts | 294° |
| 2026-04-25 09:34 | -36.42709 | 156.76574 | 38448 ft | 483 kts | 294° |
| 2026-04-25 09:35 | -36.39812 | 156.69003 | 38445 ft | 483 kts | 294° |
| 2026-04-25 09:35 | -36.36931 | 156.61495 | 38445 ft | 483 kts | 294° |
| 2026-04-25 09:36 | -36.34048 | 156.53996 | 38443 ft | 483 kts | 294° |
| 2026-04-25 09:36 | -36.31144 | 156.46463 | 38442 ft | 483 kts | 294° |
| 2026-04-25 09:37 | -36.28252 | 156.38976 | 38441 ft | 483 kts | 294° |
| 2026-04-25 09:37 | -36.25334 | 156.31442 | 38444 ft | 483 kts | 294° |
| 2026-04-25 09:38 | -36.22433 | 156.23967 | 38447 ft | 483 kts | 294° |
| 2026-04-25 09:38 | -36.19517 | 156.16473 | 38437 ft | 483 kts | 294° |
| 2026-04-25 09:39 | -36.16590 | 156.08970 | 38442 ft | 483 kts | 294° |
| 2026-04-25 09:39 | -36.13665 | 156.01488 | 38440 ft | 483 kts | 294° |
| 2026-04-25 09:40 | -36.09280 | 155.90302 | 38436 ft | 482 kts | 294° |
| 2026-04-25 09:40 | -36.06358 | 155.82869 | 38434 ft | 482 kts | 294° |
| 2026-04-25 09:41 | -36.03422 | 155.75421 | 38438 ft | 482 kts | 294° |
| 2026-04-25 09:41 | -36.00471 | 155.67951 | 38439 ft | 483 kts | 294° |
| 2026-04-25 09:42 | -35.97518 | 155.60491 | 38435 ft | 482 kts | 294° |
| 2026-04-25 09:42 | -35.94576 | 155.53078 | 38425 ft | 482 kts | 295° |
| 2026-04-25 09:43 | -35.91625 | 155.45658 | 38429 ft | 482 kts | 295° |
| 2026-04-25 09:43 | -35.88659 | 155.38221 | 38426 ft | 482 kts | 295° |
| 2026-04-25 09:44 | -35.85713 | 155.30847 | 38432 ft | 482 kts | 295° |
| 2026-04-25 09:44 | -35.82739 | 155.23422 | 38430 ft | 482 kts | 295° |
| 2026-04-25 09:45 | -35.79788 | 155.16068 | 38429 ft | 481 kts | 295° |
| 2026-04-25 09:45 | -35.76811 | 155.08668 | 38428 ft | 481 kts | 295° |
| 2026-04-25 09:46 | -35.73835 | 155.01287 | 38429 ft | 481 kts | 295° |
| 2026-04-25 09:46 | -35.70860 | 154.93925 | 38426 ft | 481 kts | 295° |
| 2026-04-25 09:47 | -35.67876 | 154.86556 | 38424 ft | 481 kts | 295° |
| 2026-04-25 09:47 | -35.64871 | 154.79151 | 38422 ft | 481 kts | 295° |
| 2026-04-25 09:48 | -35.61888 | 154.71819 | 38423 ft | 481 kts | 295° |
| 2026-04-25 09:48 | -35.58165 | 154.64985 | 38436 ft | 483 kts | 309° |
| 2026-04-25 09:49 | -35.53748 | 154.58747 | 38423 ft | 484 kts | 310° |
| 2026-04-25 09:49 | -35.49303 | 154.52537 | 38417 ft | 483 kts | 310° |
| 2026-04-25 09:50 | -35.44923 | 154.46343 | 38417 ft | 483 kts | 310° |
| 2026-04-25 09:50 | -35.40537 | 154.40097 | 38413 ft | 483 kts | 310° |
| 2026-04-25 09:51 | -35.36157 | 154.33860 | 38414 ft | 483 kts | 310° |
| 2026-04-25 09:51 | -35.31772 | 154.27629 | 38414 ft | 483 kts | 310° |
| 2026-04-25 09:52 | -35.27393 | 154.21421 | 38413 ft | 483 kts | 310° |
| 2026-04-25 09:52 | -35.22998 | 154.15203 | 38416 ft | 482 kts | 310° |
| 2026-04-25 09:53 | -35.18603 | 154.08996 | 38415 ft | 482 kts | 310° |
| 2026-04-25 09:53 | -35.14201 | 154.02791 | 38412 ft | 482 kts | 310° |
| 2026-04-25 09:54 | -35.09804 | 153.96603 | 38410 ft | 482 kts | 310° |
| 2026-04-25 09:54 | -35.05424 | 153.90450 | 38410 ft | 483 kts | 310° |
| 2026-04-25 09:55 | -35.01013 | 153.84265 | 38407 ft | 482 kts | 310° |
| 2026-04-25 09:55 | -34.96592 | 153.78077 | 38399 ft | 482 kts | 310° |
| 2026-04-25 09:56 | -34.92170 | 153.71898 | 38395 ft | 482 kts | 310° |
| 2026-04-25 09:56 | -34.87783 | 153.65778 | 38406 ft | 482 kts | 310° |
| 2026-04-25 09:57 | -34.83364 | 153.59627 | 38407 ft | 482 kts | 310° |
| 2026-04-25 09:57 | -34.78937 | 153.53474 | 38403 ft | 482 kts | 310° |
| 2026-04-25 09:58 | -34.74520 | 153.47345 | 37783 ft | 489 kts | 310° |
| 2026-04-25 09:58 | -34.72271 | 153.44229 | 37178 ft | 489 kts | 310° |
| 2026-04-25 09:58 | -34.70032 | 153.41130 | 36529 ft | 486 kts | 310° |
| 2026-04-25 09:59 | -34.67774 | 153.38008 | 36000 ft | 486 kts | 310° |
| 2026-04-25 09:59 | -34.65566 | 153.34956 | 35518 ft | 487 kts | 310° |
| 2026-04-25 09:59 | -34.63321 | 153.31858 | 35022 ft | 488 kts | 310° |
| 2026-04-25 09:59 | -34.61073 | 153.28756 | 34524 ft | 490 kts | 310° |
| 2026-04-25 10:00 | -34.58815 | 153.25644 | 33949 ft | 488 kts | 310° |
| 2026-04-25 10:00 | -34.56576 | 153.22562 | 33422 ft | 483 kts | 310° |
| 2026-04-25 10:00 | -34.54358 | 153.19512 | 32924 ft | 480 kts | 310° |
| 2026-04-25 10:00 | -34.52157 | 153.16486 | 32445 ft | 478 kts | 310° |
| 2026-04-25 10:01 | -34.49961 | 153.13471 | 31968 ft | 474 kts | 310° |
| 2026-04-25 10:01 | -34.47805 | 153.10513 | 31505 ft | 472 kts | 310° |
| 2026-04-25 10:01 | -34.45635 | 153.07537 | 31048 ft | 469 kts | 310° |
| 2026-04-25 10:01 | -34.43480 | 153.04585 | 30598 ft | 466 kts | 310° |
| 2026-04-25 10:02 | -34.41334 | 153.01648 | 30084 ft | 464 kts | 310° |
| 2026-04-25 10:02 | -34.39202 | 152.98732 | 29558 ft | 461 kts | 310° |
| 2026-04-25 10:02 | -34.37085 | 152.95839 | 29060 ft | 457 kts | 310° |
| 2026-04-25 10:02 | -34.34964 | 152.92943 | 28601 ft | 466 kts | 311° |
| 2026-04-25 10:03 | -34.32788 | 152.89973 | 28097 ft | 475 kts | 311° |
| 2026-04-25 10:03 | -34.30592 | 152.86979 | 27594 ft | 473 kts | 311° |
| 2026-04-25 10:03 | -34.28423 | 152.84026 | 27101 ft | 467 kts | 311° |
| 2026-04-25 10:03 | -34.26268 | 152.81094 | 26636 ft | 463 kts | 311° |
| 2026-04-25 10:04 | -34.24136 | 152.78196 | 26153 ft | 459 kts | 311° |
| 2026-04-25 10:04 | -34.22020 | 152.75321 | 25691 ft | 456 kts | 311° |
| 2026-04-25 10:04 | -34.19913 | 152.72461 | 25203 ft | 455 kts | 311° |
| 2026-04-25 10:04 | -34.17852 | 152.69583 | 24682 ft | 451 kts | 308° |
| 2026-04-25 10:05 | -34.16190 | 152.66380 | 24060 ft | 448 kts | 296° |
| 2026-04-25 10:05 | -34.15027 | 152.62922 | 23460 ft | 441 kts | 286° |
| 2026-04-25 10:05 | -34.14289 | 152.59358 | 22974 ft | 434 kts | 282° |
| 2026-04-25 10:05 | -34.13601 | 152.55825 | 22498 ft | 430 kts | 282° |
| 2026-04-25 10:06 | -34.12911 | 152.52320 | 22030 ft | 427 kts | 283° |
| 2026-04-25 10:06 | -34.12226 | 152.48903 | 21589 ft | 423 kts | 283° |
| 2026-04-25 10:06 | -34.11526 | 152.45461 | 21138 ft | 421 kts | 283° |
| 2026-04-25 10:06 | -34.10822 | 152.42035 | 20694 ft | 419 kts | 283° |
| 2026-04-25 10:07 | -34.10119 | 152.38630 | 20249 ft | 417 kts | 283° |
| 2026-04-25 10:07 | -34.09417 | 152.35245 | 19807 ft | 415 kts | 283° |
| 2026-04-25 10:07 | -34.08719 | 152.31881 | 19368 ft | 414 kts | 283° |
| 2026-04-25 10:07 | -34.08021 | 152.28519 | 18912 ft | 413 kts | 283° |
| 2026-04-25 10:08 | -34.07320 | 152.25152 | 18432 ft | 413 kts | 283° |
| 2026-04-25 10:08 | -34.06622 | 152.21802 | 17924 ft | 409 kts | 283° |
| 2026-04-25 10:08 | -34.05931 | 152.18487 | 17471 ft | 404 kts | 283° |
| 2026-04-25 10:08 | -34.05251 | 152.15226 | 17039 ft | 399 kts | 283° |
| 2026-04-25 10:09 | -34.04574 | 152.11988 | 16593 ft | 395 kts | 283° |
| 2026-04-25 10:09 | -34.03913 | 152.08831 | 16168 ft | 392 kts | 283° |
| 2026-04-25 10:09 | -34.03282 | 152.05607 | 15736 ft | 388 kts | 279° |
| 2026-04-25 10:09 | -34.02896 | 152.02470 | 15326 ft | 379 kts | 276° |
| 2026-04-25 10:10 | -34.02616 | 151.99335 | 14907 ft | 372 kts | 275° |
| 2026-04-25 10:10 | -34.02357 | 151.96258 | 14505 ft | 365 kts | 275° |
| 2026-04-25 10:10 | -34.02088 | 151.93242 | 14088 ft | 359 kts | 275° |
| 2026-04-25 10:10 | -34.01991 | 151.90284 | 13848 ft | 346 kts | 264° |
| 2026-04-25 10:11 | -34.02211 | 151.88412 | 13771 ft | 335 kts | 256° |
| 2026-04-25 10:11 | -34.02793 | 151.85762 | 13682 ft | 321 kts | 252° |
| 2026-04-25 10:11 | -34.03594 | 151.82404 | 13399 ft | 302 kts | 252° |
| 2026-04-25 10:11 | -34.04176 | 151.79981 | 12803 ft | 301 kts | 252° |
| 2026-04-25 10:12 | -34.04561 | 151.78375 | 12368 ft | 302 kts | 252° |
| 2026-04-25 10:12 | -34.05136 | 151.75952 | 11851 ft | 298 kts | 252° |
| 2026-04-25 10:12 | -34.06426 | 151.70455 | 10659 ft | 292 kts | 253° |
| 2026-04-25 10:13 | -34.06786 | 151.68914 | 10347 ft | 290 kts | 253° |
| 2026-04-25 10:13 | -34.07326 | 151.66589 | 9863 ft | 286 kts | 253° |
| 2026-04-25 10:13 | -34.07861 | 151.64285 | 9321 ft | 284 kts | 253° |
| 2026-04-25 10:13 | -34.08390 | 151.62003 | 8837 ft | 280 kts | 254° |
| 2026-04-25 10:14 | -34.08907 | 151.59765 | 8294 ft | 280 kts | 254° |
| 2026-04-25 10:14 | -34.09426 | 151.57520 | 7870 ft | 275 kts | 254° |
| 2026-04-25 10:14 | -34.09936 | 151.55310 | 7362 ft | 273 kts | 254° |
| 2026-04-25 10:14 | -34.10444 | 151.53108 | 6879 ft | 271 kts | 254° |
| 2026-04-25 10:15 | -34.10945 | 151.50931 | 6451 ft | 266 kts | 255° |
| 2026-04-25 10:15 | -34.11437 | 151.48796 | 6121 ft | 259 kts | 255° |
| 2026-04-25 10:15 | -34.11913 | 151.46726 | 5824 ft | 254 kts | 255° |
| 2026-04-25 10:15 | -34.12380 | 151.44690 | 5535 ft | 250 kts | 255° |
| 2026-04-25 10:16 | -34.12839 | 151.42691 | 5262 ft | 246 kts | 255° |
| 2026-04-25 10:16 | -34.13298 | 151.40688 | 5002 ft | 247 kts | 255° |
| 2026-04-25 10:16 | -34.13745 | 151.38739 | 4752 ft | 238 kts | 255° |
| 2026-04-25 10:16 | -34.14175 | 151.36859 | 4491 ft | 226 kts | 256° |
| 2026-04-25 10:17 | -34.14580 | 151.35094 | 4238 ft | 215 kts | 256° |
| 2026-04-25 10:17 | -34.14969 | 151.33395 | 3991 ft | 205 kts | 256° |
| 2026-04-25 10:17 | -34.15332 | 151.31806 | 3906 ft | 190 kts | 256° |
| 2026-04-25 10:17 | -34.15683 | 151.30266 | 3855 ft | 196 kts | 256° |
| 2026-04-25 10:18 | -34.16055 | 151.28631 | 3776 ft | 203 kts | 256° |
| 2026-04-25 10:18 | -34.16347 | 151.26950 | 3658 ft | 204 kts | 273° |
| 2026-04-25 10:18 | -34.15814 | 151.25441 | 3580 ft | 194 kts | 316° |
| 2026-04-25 10:18 | -34.14843 | 151.24334 | 3520 ft | 192 kts | 319° |
| 2026-04-25 10:19 | -34.13869 | 151.23219 | 3333 ft | 191 kts | 322° |
| 2026-04-25 10:19 | -34.12730 | 151.22595 | 3152 ft | 173 kts | 348° |
| 2026-04-25 10:19 | -34.11594 | 151.22163 | 3033 ft | 175 kts | 344° |
| 2026-04-25 10:19 | -34.10423 | 151.21752 | 2811 ft | 175 kts | 348° |
| 2026-04-25 10:20 | -34.09246 | 151.21415 | 2560 ft | 172 kts | 349° |
| 2026-04-25 10:20 | -34.08107 | 151.21111 | 2357 ft | 160 kts | 350° |
| 2026-04-25 10:20 | -34.07063 | 151.20837 | 2147 ft | 149 kts | 351° |
| 2026-04-25 10:20 | -34.06063 | 151.20577 | 1950 ft | 146 kts | 351° |
| 2026-04-25 10:21 | -34.05062 | 151.20317 | 1785 ft | 145 kts | 351° |
| 2026-04-25 10:21 | -34.04124 | 151.20057 | 1576 ft | 130 kts | 350° |
| 2026-04-25 10:21 | -34.03272 | 151.19771 | 1341 ft | 130 kts | 346° |
| 2026-04-25 10:21 | -34.02366 | 151.19567 | 1236 ft | 134 kts | 354° |
| 2026-04-25 10:22 | -34.01436 | 151.19363 | 1074 ft | 135 kts | 352° |
| 2026-04-25 10:22 | -34.00516 | 151.19123 | 904 ft | 135 kts | 352° |
| 2026-04-25 10:22 | -33.99622 | 151.18902 | 740 ft | 130 kts | 351° |
| 2026-04-25 10:22 | -33.98742 | 151.18670 | 522 ft | 129 kts | 350° |
| 2026-04-25 10:23 | -33.97857 | 151.18440 | 320 ft | 131 kts | 350° |
| 2026-04-25 10:23 | -33.96953 | 151.18204 | 195 ft | 133 kts | 349° |
| 2026-04-25 10:23 | -33.96075 | 151.17971 | 41 ft | 122 kts | 349° |
| 2026-04-25 10:23 | -33.95407 | 151.17803 | 28 ft | 92 kts | 348° |
| 2026-04-25 10:24 | -33.95083 | 151.17720 | 26 ft | 53 kts | 347° |
| 2026-04-25 10:24 | -33.94708 | 151.17620 | 28 ft | 71 kts | 348° |
| 2026-04-25 10:24 | -33.94199 | 151.17491 | 28 ft | 71 kts | 346° |
| 2026-04-25 10:24 | -33.93955 | 151.17427 | 27 ft | 15 kts | 358° |
| 2026-04-25 10:25 | -33.93907 | 151.17497 | 27 ft | 11 kts | 71° |
| 2026-04-25 10:25 | -33.93898 | 151.17535 | 27 ft | 0 kts | 73° |
| 2026-04-25 10:25 | -33.93898 | 151.17536 | 27 ft | 0 kts | 73° |
| 2026-04-25 10:25 | -33.93897 | 151.17540 | 27 ft | 1 kts | 73° |
| 2026-04-25 10:26 | -33.93895 | 151.17544 | 27 ft | 1 kts | 73° |
| 2026-04-25 10:26 | -33.93894 | 151.17549 | 27 ft | 0 kts | 73° |
| 2026-04-25 10:26 | -33.93893 | 151.17552 | 28 ft | 1 kts | 73° |
| 2026-04-25 10:26 | -33.93892 | 151.17557 | 28 ft | 1 kts | 73° |
| 2026-04-25 10:27 | -33.93892 | 151.17560 | 28 ft | 0 kts | 73° |